Time;durP1;ratioP1;P1;durP2;ratioP2;P2;SDS_P1;SDS_P2;PMS_P1;PMS_P2;Temp;Humidity;BMP_temperature;BMP_pressure;BME280_temperature;BME280_humidity;BME280_pressure;Samples;Min_cycle;Max_cycle;Signal;HPM_P1;HPM_P2
2022/04/17 00:00:00;;;;;;;17.02;11.00;;;26.30;95.20;;;;;;5105080;28;20030;-59
2022/04/17 00:02:29;;;;;;;18.65;10.77;;;26.30;95.00;;;;;;5104863;28;20083;-60
2022/04/17 00:04:55;;;;;;;18.05;11.05;;;26.30;95.00;;;;;;5104873;28;20382;-59
2022/04/17 00:07:22;;;;;;;18.35;10.45;;;26.30;94.90;;;;;;5105051;28;20020;-59
2022/04/17 00:09:50;;;;;;;19.00;10.55;;;26.30;94.90;;;;;;5104784;28;20028;-59
2022/04/17 00:12:16;;;;;;;16.08;10.57;;;26.30;95.00;;;;;;5104966;28;20028;-59
2022/04/17 00:14:43;;;;;;;24.35;11.35;;;26.30;94.90;;;;;;5105073;28;20016;-59
2022/04/17 00:17:11;;;;;;;16.80;11.02;;;26.30;94.90;;;;;;5104964;28;20020;-60
2022/04/17 00:19:38;;;;;;;16.38;10.10;;;26.30;95.00;;;;;;5105126;28;20085;-60
2022/04/17 00:22:05;;;;;;;16.42;10.65;;;26.30;95.00;;;;;;5104987;28;20284;-60
2022/04/17 00:24:32;;;;;;;18.45;10.30;;;26.30;95.00;;;;;;5104693;28;20094;-60
2022/04/17 00:27:00;;;;;;;13.68;9.75;;;26.30;94.90;;;;;;5104836;28;20281;-60
2022/04/17 00:29:29;;;;;;;14.02;9.20;;;26.20;94.90;;;;;;5104712;28;20027;-59
2022/04/17 00:31:57;;;;;;;12.90;8.90;;;26.30;94.90;;;;;;5103861;28;20012;-60
2022/04/17 00:34:26;;;;;;;13.80;8.90;;;26.20;94.80;;;;;;5104565;28;20032;-60
2022/04/17 00:36:53;;;;;;;12.98;8.65;;;26.30;94.80;;;;;;5104813;28;20015;-61
2022/04/17 00:39:19;;;;;;;15.27;8.52;;;26.20;94.80;;;;;;5104570;28;20051;-59
2022/04/17 00:41:46;;;;;;;15.02;9.23;;;26.20;94.80;;;;;;5104592;28;20036;-60
2022/04/17 00:44:15;;;;;;;16.05;8.57;;;26.20;94.80;;;;;;5104215;28;20020;-60
2022/04/17 00:46:42;;;;;;;15.43;9.93;;;26.20;94.80;;;;;;5104562;28;20047;-60
2022/04/17 00:49:09;;;;;;;15.63;8.45;;;26.20;94.70;;;;;;5104084;28;20052;-59
2022/04/17 00:51:41;;;;;;;16.15;8.98;;;26.10;94.70;;;;;;5103971;28;20044;-60
2022/04/17 00:54:12;;;;;;;13.15;8.30;;;26.10;94.80;;;;;;5104034;28;20073;-60
2022/04/17 00:56:38;;;;;;;11.95;8.68;;;26.10;94.70;;;;;;5103981;28;20020;-60
2022/04/17 00:59:09;;;;;;;12.77;8.48;;;26.10;94.70;;;;;;5104049;28;20035;-59
2022/04/17 01:01:37;;;;;;;14.57;8.65;;;26.10;94.70;;;;;;5104064;28;20062;-60
2022/04/17 01:04:06;;;;;;;11.25;8.18;;;26.10;94.70;;;;;;5104337;28;20059;-61
2022/04/17 01:06:33;;;;;;;14.15;9.30;;;26.10;94.70;;;;;;5104049;28;20236;-60
2022/04/17 01:09:01;;;;;;;15.25;8.57;;;26.10;94.70;;;;;;5104054;28;20036;-61
2022/04/17 01:11:29;;;;;;;15.45;8.65;;;26.00;94.70;;;;;;5103895;28;20051;-60
2022/04/17 01:13:55;;;;;;;12.55;8.43;;;26.00;94.70;;;;;;5104085;28;20035;-58
2022/04/17 01:16:25;;;;;;;12.95;8.70;;;26.00;94.60;;;;;;5104035;28;20051;-60
2022/04/17 01:19:12;;;;;;;12.25;8.43;;;26.00;94.60;;;;;;5104045;28;20078;-60
2022/04/17 01:21:43;;;;;;;15.10;8.70;;;26.00;94.60;;;;;;5103817;28;20044;-60
2022/04/17 01:26:56;;;;;;;11.57;8.30;;;26.00;94.60;;;;;;5104255;28;20030;-60
2022/04/17 01:29:35;;;;;;;14.30;8.07;;;26.00;94.50;;;;;;5103867;28;20111;-60
2022/04/17 01:32:07;;;;;;;13.10;8.40;;;26.00;94.40;;;;;;5103933;28;20019;-60
2022/04/17 01:34:34;;;;;;;13.93;8.30;;;26.00;94.40;;;;;;5103943;28;20266;-60
2022/04/17 01:37:01;;;;;;;11.57;7.95;;;26.00;94.40;;;;;;5103832;28;20046;-59
2022/04/17 01:39:28;;;;;;;14.18;7.90;;;26.00;94.30;;;;;;5103976;28;20020;-60
2022/04/17 01:41:56;;;;;;;11.02;7.47;;;26.00;94.40;;;;;;5105009;28;20028;-60
2022/04/17 01:44:25;;;;;;;15.27;8.27;;;26.00;94.40;;;;;;5107584;28;20035;-58
2022/04/17 01:46:52;;;;;;;14.73;8.13;;;26.10;94.40;;;;;;5112650;28;20030;-58
2022/04/17 01:49:21;;;;;;;12.38;8.80;;;26.10;94.40;;;;;;5123270;28;20056;-56
2022/04/17 01:51:48;;;;;;;14.45;9.23;;;26.10;94.60;;;;;;5126127;28;20020;-58
2022/04/17 01:54:17;;;;;;;15.85;9.95;;;26.00;94.60;;;;;;5109632;28;20294;-57
2022/04/17 01:56:47;;;;;;;16.77;10.63;;;26.00;94.60;;;;;;5091919;28;20031;-56
2022/04/17 01:59:15;;;;;;;14.10;10.30;;;26.00;94.70;;;;;;5086762;28;20320;-56
2022/04/17 02:01:42;;;;;;;15.23;11.18;;;26.00;94.80;;;;;;5087053;28;20047;-59
2022/04/17 02:04:09;;;;;;;19.25;11.48;;;26.00;94.80;;;;;;5087119;28;20266;-57
2022/04/17 02:06:39;;;;;;;16.40;11.60;;;26.00;94.80;;;;;;5086811;28;20044;-55
2022/04/17 02:09:08;;;;;;;13.43;11.18;;;26.00;94.80;;;;;;5086960;28;20039;-57
2022/04/17 02:11:35;;;;;;;15.15;10.98;;;26.00;94.70;;;;;;5086542;28;20048;-55
2022/04/17 02:14:01;;;;;;;15.40;10.57;;;26.00;94.70;;;;;;5086710;28;20043;-57
2022/04/17 02:16:28;;;;;;;22.55;10.50;;;26.00;94.70;;;;;;5102382;28;20038;-58
2022/04/17 02:18:55;;;;;;;17.17;10.50;;;26.00;94.70;;;;;;5116312;28;20099;-56
2022/04/17 02:21:21;;;;;;;15.90;9.52;;;26.00;94.60;;;;;;5126205;28;20061;-60
2022/04/17 02:23:49;;;;;;;15.70;9.43;;;26.00;94.70;;;;;;5127900;28;20019;-57
2022/04/17 02:26:17;;;;;;;17.02;8.98;;;25.90;94.70;;;;;;5127355;28;20240;-56
2022/04/17 02:28:44;;;;;;;12.98;7.97;;;25.90;94.70;;;;;;5127373;28;20043;-56
2022/04/17 02:31:11;;;;;;;17.60;8.18;;;25.90;94.60;;;;;;5105308;28;20012;-61
2022/04/17 02:33:39;;;;;;;14.00;7.82;;;25.90;94.70;;;;;;5087687;28;20023;-58
2022/04/17 02:36:06;;;;;;;11.48;7.80;;;25.90;94.70;;;;;;5086218;28;20024;-57
2022/04/17 02:38:33;;;;;;;14.20;7.45;;;25.90;94.70;;;;;;5086690;28;20028;-57
2022/04/17 02:41:00;;;;;;;13.27;7.18;;;25.90;94.80;;;;;;5086162;28;20055;-58
2022/04/17 02:43:27;;;;;;;11.75;7.30;;;25.90;94.70;;;;;;5086632;28;20039;-58
2022/04/17 02:45:54;;;;;;;13.05;7.97;;;25.90;94.70;;;;;;5086452;28;20020;-58
2022/04/17 02:48:21;;;;;;;14.32;7.45;;;25.90;94.70;;;;;;5086226;28;20044;-58
2022/04/17 02:50:48;;;;;;;9.80;7.00;;;25.90;94.70;;;;;;5086020;28;20071;-58
2022/04/17 02:53:16;;;;;;;12.05;7.72;;;25.90;94.80;;;;;;5086129;28;20027;-55
2022/04/17 02:55:44;;;;;;;16.42;7.90;;;25.90;94.80;;;;;;5085676;28;20033;-58
2022/04/17 02:58:11;;;;;;;11.32;7.80;;;25.90;94.80;;;;;;5086218;28;20280;-57
2022/04/17 03:06:10;;;;;;;16.88;9.50;;;25.90;94.80;;;;;;5085863;28;20101;-57
2022/04/17 03:08:41;;;;;;;14.50;8.63;;;25.80;94.70;;;;;;5085825;28;20086;-56
2022/04/17 03:11:08;;;;;;;11.75;8.57;;;25.80;94.80;;;;;;5085530;28;20021;-55
2022/04/17 03:13:36;;;;;;;15.80;8.57;;;25.80;94.90;;;;;;5086135;28;20025;-55
2022/04/17 03:16:03;;;;;;;9.75;7.40;;;25.80;94.90;;;;;;5085369;28;20020;-56
2022/04/17 03:18:29;;;;;;;16.02;8.10;;;25.80;94.80;;;;;;5086076;28;20055;-54
2022/04/17 03:20:58;;;;;;;12.27;8.00;;;25.80;94.80;;;;;;5085674;28;20024;-55
2022/04/17 03:23:24;;;;;;;11.57;7.90;;;25.80;94.80;;;;;;5094686;28;20036;-54
2022/04/17 03:25:51;;;;;;;15.13;7.65;;;25.80;94.70;;;;;;5103178;28;20028;-56
2022/04/17 03:28:18;;;;;;;12.70;6.88;;;25.80;94.60;;;;;;5105851;28;20051;-57
2022/04/17 03:30:44;;;;;;;12.43;6.40;;;25.80;94.50;;;;;;5105449;28;20031;-57
2022/04/17 03:33:12;;;;;;;11.88;6.50;;;25.80;94.40;;;;;;5105874;28;20095;-56
2022/04/17 03:35:39;;;;;;;13.27;6.13;;;25.80;94.40;;;;;;5108010;28;20069;-59
2022/04/17 03:38:05;;;;;;;12.18;5.82;;;25.70;94.40;;;;;;5113648;28;20027;-56
2022/04/17 03:40:32;;;;;;;9.73;5.68;;;25.80;94.40;;;;;;5125901;28;20208;-55
2022/04/17 03:42:59;;;;;;;10.23;5.32;;;25.70;94.40;;;;;;5125865;28;20288;-56
2022/04/17 03:45:25;;;;;;;11.20;5.20;;;25.70;94.30;;;;;;5117913;28;20031;-57
2022/04/17 03:47:52;;;;;;;15.15;4.90;;;25.70;94.30;;;;;;5105158;28;20048;-56
2022/04/17 03:50:19;;;;;;;11.65;4.72;;;25.70;94.30;;;;;;5084688;28;20036;-59
2022/04/17 03:52:48;;;;;;;10.23;4.47;;;25.70;94.30;;;;;;5085103;28;20252;-57
2022/04/17 03:55:15;;;;;;;9.20;4.00;;;25.70;94.30;;;;;;5084872;28;20024;-57
2022/04/17 03:57:42;;;;;;;10.07;3.53;;;25.70;94.20;;;;;;5085097;28;20087;-55
2022/04/17 04:00:12;;;;;;;11.40;5.53;;;25.70;94.10;;;;;;5084614;28;20032;-55
2022/04/17 04:02:39;;;;;;;49.90;44.75;;;25.70;94.00;;;;;;5085067;28;20040;-56
2022/04/17 04:05:08;;;;;;;66.65;59.70;;;25.70;94.10;;;;;;5083893;28;20032;-55
2022/04/17 04:07:38;;;;;;;35.80;31.85;;;25.70;94.20;;;;;;5084129;28;20040;-54
2022/04/17 04:10:06;;;;;;;47.58;42.65;;;25.70;94.10;;;;;;5084392;28;20029;-55
2022/04/17 04:12:34;;;;;;;43.08;38.88;;;25.70;94.10;;;;;;5084575;28;20036;-58
2022/04/17 04:15:01;;;;;;;31.92;28.65;;;25.70;94.20;;;;;;5084039;28;20035;-57
2022/04/17 04:17:28;;;;;;;27.30;20.83;;;25.70;94.10;;;;;;5084455;28;20017;-56
2022/04/17 04:19:54;;;;;;;19.42;15.98;;;25.70;94.10;;;;;;5084363;28;20036;-55
2022/04/17 04:22:21;;;;;;;19.88;12.88;;;25.70;94.10;;;;;;5084265;28;20028;-55
2022/04/17 04:24:48;;;;;;;11.60;8.82;;;25.70;94.10;;;;;;5084195;28;20317;-56
2022/04/17 04:30:00;;;;;;;10.55;6.75;;;25.60;94.00;;;;;;5077106;28;20342;-57
2022/04/17 04:32:27;;;;;;;11.07;7.00;;;25.60;94.10;;;;;;5064444;28;20044;-57
2022/04/17 04:34:59;;;;;;;12.55;6.10;;;25.70;94.20;;;;;;5064144;28;20017;-57
2022/04/17 04:37:27;;;;;;;11.02;6.07;;;25.60;94.10;;;;;;5064117;28;20025;-57
2022/04/17 04:39:54;;;;;;;10.38;5.05;;;25.70;94.20;;;;;;5064077;28;20041;-56
2022/04/17 04:42:21;;;;;;;12.18;5.00;;;25.60;94.30;;;;;;5064328;28;20201;-55
2022/04/17 04:46:06;;;;;;;13.05;4.95;;;25.60;94.20;;;;;;5064014;28;20028;-56
2022/04/17 04:47:35;;;;;;;8.88;4.07;;;25.60;94.30;;;;;;5063936;28;20252;-57
2022/04/17 04:50:02;;;;;;;10.32;4.45;;;25.60;94.30;;;;;;5080712;28;20363;-56
2022/04/17 04:52:29;;;;;;;11.95;4.68;;;25.60;94.40;;;;;;5084086;28;20051;-54
2022/04/17 04:54:55;;;;;;;12.02;4.38;;;25.60;94.30;;;;;;5083917;28;20328;-55
2022/04/17 04:57:22;;;;;;;7.57;4.03;;;25.60;94.20;;;;;;5084094;28;20178;-58
2022/04/17 04:59:49;;;;;;;13.63;4.03;;;25.60;94.30;;;;;;5100952;28;20020;-57
2022/04/17 05:02:16;;;;;;;14.43;4.50;;;25.60;94.40;;;;;;5098935;28;20032;-58
2022/04/17 05:04:42;;;;;;;10.85;4.05;;;25.60;94.40;;;;;;5092782;28;20312;-58
2022/04/17 05:07:09;;;;;;;6.57;3.88;;;25.60;94.30;;;;;;5084155;28;20305;-56
2022/04/17 05:09:36;;;;;;;9.00;3.53;;;25.60;94.30;;;;;;5103816;28;20248;-55
2022/04/17 05:12:03;;;;;;;10.02;4.22;;;25.60;94.30;;;;;;5106458;28;20065;-56
2022/04/17 05:14:29;;;;;;;9.23;3.88;;;25.60;94.40;;;;;;5124429;28;20327;-56
2022/04/17 05:16:56;;;;;;;10.02;3.80;;;25.60;94.40;;;;;;5124966;28;20023;-55
2022/04/17 05:19:27;;;;;;;8.40;4.10;;;25.60;94.30;;;;;;5128600;28;20094;-57
2022/04/17 05:21:58;;;;;;;9.05;4.07;;;25.50;94.30;;;;;;5128647;28;20031;-56
2022/04/17 05:24:26;;;;;;;6.32;3.47;;;25.50;94.30;;;;;;5128119;28;20024;-58
2022/04/17 05:26:53;;;;;;;10.68;3.88;;;25.50;94.30;;;;;;5128318;28;20050;-58
2022/04/17 05:29:20;;;;;;;7.45;3.78;;;25.50;94.30;;;;;;5128825;28;20199;-58
2022/04/17 05:31:48;;;;;;;15.40;3.80;;;25.50;94.10;;;;;;5128504;28;20205;-59
2022/04/17 05:34:15;;;;;;;9.93;4.00;;;25.50;94.10;;;;;;5128510;28;20035;-59
2022/04/17 05:36:42;;;;;;;10.65;3.90;;;25.50;94.00;;;;;;5128295;28;20308;-60
2022/04/17 05:39:09;;;;;;;5.68;3.65;;;25.50;94.00;;;;;;5128314;28;20023;-58
2022/04/17 05:41:37;;;;;;;7.60;3.78;;;25.50;94.00;;;;;;5128078;28;20258;-58
2022/04/17 05:44:06;;;;;;;8.65;3.83;;;25.50;94.00;;;;;;5128275;28;20030;-58
2022/04/17 05:46:38;;;;;;;12.80;3.80;;;25.60;93.90;;;;;;5128019;28;20129;-58
2022/04/17 05:49:06;;;;;;;9.77;4.10;;;25.50;93.80;;;;;;5127963;28;20040;-56
2022/04/17 05:51:36;;;;;;;10.10;3.90;;;25.50;93.60;;;;;;5127869;28;20087;-56
2022/04/17 05:54:07;;;;;;;13.63;3.83;;;25.50;93.50;;;;;;5120121;28;20028;-57
2022/04/17 05:56:37;;;;;;;8.25;3.55;;;25.60;93.40;;;;;;5128056;28;20339;-53
2022/04/17 05:59:07;;;;;;;10.02;3.50;;;25.60;93.30;;;;;;5127750;28;20031;-54
2022/04/17 06:01:34;;;;;;;10.38;3.67;;;25.60;93.20;;;;;;5127665;28;20253;-57
2022/04/17 06:04:04;;;;;;;7.97;3.58;;;25.60;93.00;;;;;;5128089;28;20031;-58
2022/04/17 06:06:30;;;;;;;8.40;4.00;;;25.60;92.90;;;;;;5128036;28;20077;-59
2022/04/17 06:08:57;;;;;;;9.15;3.75;;;25.60;92.90;;;;;;5128027;28;20058;-60
2022/04/17 06:11:23;;;;;;;7.32;3.50;;;25.60;93.00;;;;;;5128235;28;20027;-59
2022/04/17 06:13:50;;;;;;;11.98;3.95;;;25.60;93.00;;;;;;5128010;28;20019;-57
2022/04/17 06:16:17;;;;;;;10.40;3.70;;;25.60;93.00;;;;;;5127429;28;20028;-57
2022/04/17 06:18:43;;;;;;;9.38;3.72;;;25.60;92.90;;;;;;5128036;28;20035;-59
2022/04/17 06:21:11;;;;;;;13.02;4.15;;;25.60;93.00;;;;;;5127464;28;20057;-58
2022/04/17 06:23:38;;;;;;;9.50;3.40;;;25.60;93.00;;;;;;5127727;28;20028;-58
2022/04/17 06:26:06;;;;;;;10.38;3.42;;;25.60;93.00;;;;;;5127487;28;20047;-60
2022/04/17 06:28:33;;;;;;;9.95;3.60;;;25.60;92.90;;;;;;5126462;28;20030;-58
2022/04/17 06:30:59;;;;;;;10.25;3.90;;;25.60;92.90;;;;;;5127545;28;20032;-58
2022/04/17 06:33:26;;;;;;;11.85;3.67;;;25.60;93.00;;;;;;5128026;28;20039;-59
2022/04/17 06:35:52;;;;;;;8.40;3.25;;;25.60;93.00;;;;;;5127103;28;20082;-60
2022/04/17 06:38:20;;;;;;;8.55;3.65;;;25.60;93.00;;;;;;5128013;28;20024;-60
2022/04/17 06:40:46;;;;;;;9.88;3.53;;;25.60;93.00;;;;;;5126960;28;20026;-58
2022/04/17 06:43:13;;;;;;;8.60;3.40;;;25.50;93.00;;;;;;5127282;28;20019;-58
2022/04/17 06:45:41;;;;;;;14.90;3.85;;;25.60;93.10;;;;;;5126865;28;20248;-57
2022/04/17 06:48:21;;;;;;;10.13;3.90;;;25.50;93.10;;;;;;5127415;28;20028;-59
2022/04/17 06:50:51;;;;;;;12.20;4.10;;;25.50;93.10;;;;;;5126757;28;20315;-60
2022/04/17 06:53:18;;;;;;;12.27;4.47;;;25.50;93.10;;;;;;5127356;28;20028;-59
2022/04/17 06:55:46;;;;;;;10.15;3.90;;;25.60;93.10;;;;;;5127053;28;20011;-60
2022/04/17 06:58:14;;;;;;;10.70;4.13;;;25.50;93.10;;;;;;5127136;28;20100;-59
2022/04/17 07:00:40;;;;;;;8.40;3.60;;;25.50;93.00;;;;;;5126919;28;20065;-61
2022/04/17 07:03:07;;;;;;;11.25;4.10;;;25.50;93.00;;;;;;5127072;28;20181;-58
2022/04/17 07:05:37;;;;;;;11.85;4.00;;;25.50;93.00;;;;;;5126518;28;20034;-58
2022/04/17 07:08:06;;;;;;;6.88;4.00;;;25.60;93.10;;;;;;5126904;28;20196;-58
2022/04/17 07:10:37;;;;;;;8.27;3.88;;;25.60;93.10;;;;;;5126649;28;20015;-58
2022/04/17 07:13:05;;;;;;;8.88;3.90;;;25.50;93.00;;;;;;5126780;28;20051;-60
2022/04/17 07:15:32;;;;;;;7.65;3.80;;;25.60;93.10;;;;;;5126629;28;20016;-60
2022/04/17 07:17:58;;;;;;;8.38;3.35;;;25.50;93.00;;;;;;5126533;28;20043;-59
2022/04/17 07:20:25;;;;;;;6.28;3.45;;;25.50;93.00;;;;;;5126421;28;20023;-60
2022/04/17 07:22:52;;;;;;;11.23;3.70;;;25.50;93.00;;;;;;5126770;28;20362;-59
2022/04/17 07:25:19;;;;;;;10.18;3.58;;;25.50;93.10;;;;;;5126214;28;20028;-58
2022/04/17 07:27:49;;;;;;;11.75;3.95;;;25.50;93.20;;;;;;5126379;28;20188;-59
2022/04/17 07:30:16;;;;;;;10.75;3.92;;;25.50;93.20;;;;;;5126090;28;20035;-59
2022/04/17 07:32:48;;;;;;;8.27;4.13;;;25.50;93.20;;;;;;5126063;28;20296;-59
2022/04/17 07:35:17;;;;;;;9.15;4.30;;;25.50;93.30;;;;;;5126225;28;20031;-59
2022/04/17 07:37:52;;;;;;;11.32;4.30;;;25.50;93.30;;;;;;5126287;28;20024;-59
2022/04/17 07:40:21;;;;;;;8.90;4.20;;;25.50;93.40;;;;;;5125804;28;20027;-59
2022/04/17 07:42:49;;;;;;;11.25;4.20;;;25.50;93.50;;;;;;5126142;28;20027;-60
2022/04/17 07:45:17;;;;;;;10.80;4.28;;;25.50;93.50;;;;;;5126025;28;20296;-58
2022/04/17 07:47:44;;;;;;;7.53;4.07;;;25.50;93.60;;;;;;5126165;28;20228;-60
2022/04/17 07:50:13;;;;;;;11.60;4.40;;;25.50;93.60;;;;;;5126183;28;20198;-60
2022/04/17 07:52:40;;;;;;;10.65;4.38;;;25.50;93.60;;;;;;5126032;28;20100;-60
2022/04/17 07:55:08;;;;;;;9.95;4.53;;;25.50;93.60;;;;;;5125855;28;20111;-59
2022/04/17 08:00:24;;;;;;;14.27;4.57;;;25.50;93.80;;;;;;5125516;28;20022;-58
2022/04/17 08:03:06;;;;;;;11.85;4.72;;;25.50;93.90;;;;;;5125826;28;20101;-58
2022/04/17 08:05:36;;;;;;;;;;;25.40;93.80;;;;;;5125720;28;20320;-59
2022/04/17 08:08:04;;;;;;;8.85;3.92;;;25.40;93.80;;;;;;5125581;28;19914;-58
2022/04/17 08:10:30;;;;;;;15.35;4.97;;;25.50;94.00;;;;;;5125550;28;20338;-59
2022/04/17 08:12:57;;;;;;;11.80;4.43;;;25.40;94.00;;;;;;5125642;28;20042;-61
2022/04/17 08:15:23;;;;;;;9.90;4.60;;;25.40;94.00;;;;;;5125579;28;20286;-61
2022/04/17 08:17:50;;;;;;;9.85;4.40;;;25.40;94.00;;;;;;5125416;28;20073;-60
2022/04/17 08:20:17;;;;;;;11.93;4.35;;;25.50;94.00;;;;;;5125175;28;20027;-60
2022/04/17 08:22:43;;;;;;;11.00;4.47;;;25.50;94.00;;;;;;5125597;28;20027;-59
2022/04/17 08:25:10;;;;;;;8.77;3.95;;;25.40;94.00;;;;;;5125102;28;20320;-57
2022/04/17 08:27:46;;;;;;;11.60;4.38;;;25.40;94.00;;;;;;5125114;28;20247;-58
2022/04/17 08:30:13;;;;;;;8.40;4.25;;;25.40;94.10;;;;;;5124906;28;20024;-58
2022/04/17 08:32:40;;;;;;;9.70;4.07;;;25.40;94.00;;;;;;5125017;28;20016;-58
2022/04/17 08:35:08;;;;;;;14.18;4.53;;;25.40;94.00;;;;;;5124876;28;20047;-57
2022/04/17 08:37:35;;;;;;;8.50;4.68;;;25.40;94.00;;;;;;5125148;28;20088;-60
2022/04/17 08:40:02;;;;;;;9.40;4.05;;;25.40;94.10;;;;;;5124823;28;20016;-59
2022/04/17 08:42:31;;;;;;;14.05;4.45;;;25.40;94.10;;;;;;5124989;28;20024;-60
2022/04/17 08:44:57;;;;;;;13.25;4.53;;;25.40;94.10;;;;;;5124928;28;20051;-59
2022/04/17 08:47:26;;;;;;;8.45;4.10;;;25.40;94.20;;;;;;5124796;28;20027;-59
2022/04/17 08:49:55;;;;;;;10.57;4.30;;;25.40;94.10;;;;;;5124426;28;20055;-59
2022/04/17 08:52:23;;;;;;;8.10;3.60;;;25.40;94.20;;;;;;5124160;28;20073;-58
2022/04/17 08:54:50;;;;;;;11.85;4.28;;;25.40;94.20;;;;;;5124938;28;20008;-60
2022/04/17 08:57:17;;;;;;;13.30;4.10;;;25.40;94.20;;;;;;5124860;28;20027;-62
2022/04/17 08:59:44;;;;;;;15.50;4.32;;;25.40;94.10;;;;;;5124468;28;20319;-60
2022/04/17 09:02:11;;;;;;;13.93;4.05;;;25.40;94.20;;;;;;5124511;28;20240;-59
2022/04/17 09:04:38;;;;;;;13.35;4.05;;;25.40;94.20;;;;;;5124628;28;20245;-61
2022/04/17 09:07:12;;;;;;;9.68;3.92;;;25.40;94.20;;;;;;5124725;28;20100;-61
2022/04/17 09:09:39;;;;;;;12.02;4.10;;;25.40;94.20;;;;;;5123955;28;20049;-60
2022/04/17 09:12:07;;;;;;;7.75;3.83;;;25.30;94.20;;;;;;5124643;28;20216;-60
2022/04/17 09:14:40;;;;;;;11.60;4.13;;;25.30;94.20;;;;;;5124443;28;20020;-61
2022/04/17 09:17:10;;;;;;;11.02;4.25;;;25.40;94.20;;;;;;5124558;28;20028;-59
2022/04/17 09:19:37;;;;;;;7.25;3.58;;;25.30;94.20;;;;;;5124346;28;20024;-61
2022/04/17 09:22:12;;;;;;;12.13;4.13;;;25.40;94.30;;;;;;5124645;28;20027;-61
2022/04/17 09:24:40;;;;;;;11.02;3.97;;;25.40;94.30;;;;;;5124387;28;20036;-59
2022/04/17 09:27:08;;;;;;;9.70;4.45;;;25.40;94.20;;;;;;5124339;28;20038;-60
2022/04/17 09:29:37;;;;;;;15.88;4.53;;;25.40;94.20;;;;;;5124417;28;20028;-60
2022/04/17 09:32:11;;;;;;;11.20;4.47;;;25.40;94.30;;;;;;5124490;28;20020;-60
2022/04/17 09:34:49;;;;;;;11.85;3.92;;;25.40;94.30;;;;;;5124554;28;20023;-59
2022/04/17 09:37:17;;;;;;;12.68;4.63;;;25.40;94.30;;;;;;5124298;28;20018;-59
2022/04/17 09:39:45;;;;;;;9.52;4.05;;;25.30;94.40;;;;;;5124329;28;20035;-57
2022/04/17 09:42:12;;;;;;;13.75;4.53;;;25.30;94.40;;;;;;5124563;28;20027;-59
2022/04/17 09:44:46;;;;;;;13.05;4.40;;;25.40;94.40;;;;;;5124448;28;20024;-59
2022/04/17 09:47:17;;;;;;;8.82;4.13;;;25.40;94.70;;;;;;5124193;28;20043;-59
2022/04/17 09:50:08;;;;;;;13.27;4.32;;;25.30;94.50;;;;;;5123881;28;20044;-60
2022/04/17 09:52:43;;;;;;;15.13;4.40;;;25.40;94.60;;;;;;5124515;28;20319;-57
2022/04/17 09:55:11;;;;;;;8.48;4.32;;;25.40;94.60;;;;;;5124056;28;20084;-59
2022/04/17 09:57:39;;;;;;;14.05;4.28;;;25.40;94.60;;;;;;5124312;28;20100;-60
2022/04/17 10:00:10;;;;;;;14.45;4.07;;;25.40;94.60;;;;;;5124280;28;20020;-57
2022/04/17 10:02:39;;;;;;;10.75;4.57;;;25.40;94.60;;;;;;5125075;28;20035;-59
2022/04/17 10:05:10;;;;;;;12.27;4.20;;;25.40;94.60;;;;;;5128442;28;20054;-59
2022/04/17 10:07:43;;;;;;;10.70;4.10;;;25.40;94.60;;;;;;5127883;28;20307;-60
2022/04/17 10:10:11;;;;;;;9.98;4.18;;;25.40;94.60;;;;;;5127629;28;20028;-57
2022/04/17 10:12:43;;;;;;;8.70;4.00;;;25.40;94.60;;;;;;5128249;28;20039;-59
2022/04/17 10:15:11;;;;;;;13.48;3.92;;;25.40;94.60;;;;;;5127833;28;20323;-58
2022/04/17 10:17:45;;;;;;;11.27;4.43;;;25.40;94.70;;;;;;5127762;28;20030;-59
2022/04/17 10:20:14;;;;;;;7.50;3.95;;;25.30;94.60;;;;;;5127587;28;20036;-60
2022/04/17 10:22:49;;;;;;;12.65;4.05;;;25.40;94.70;;;;;;5127985;28;20019;-59
2022/04/17 10:25:18;;;;;;;13.55;3.90;;;25.30;94.60;;;;;;5127725;28;20023;-59
2022/04/17 10:27:58;;;;;;;8.38;3.92;;;25.40;94.60;;;;;;5128232;28;20038;-60
2022/04/17 10:30:50;;;;;;;9.95;4.30;;;25.40;94.70;;;;;;5127477;28;20338;-57
2022/04/17 10:33:34;;;;;;;14.48;4.40;;;25.30;94.60;;;;;;5089636;28;20261;-59
2022/04/17 10:36:15;;;;;;;14.00;4.45;;;25.40;94.60;;;;;;5127150;28;20311;-59
2022/04/17 10:39:05;;;;;;;8.50;3.90;;;25.40;94.60;;;;;;5127824;28;20216;-60
2022/04/17 10:41:32;;;;;;;7.88;4.40;;;25.30;94.60;;;;;;5127347;28;20274;-58
2022/04/17 10:44:03;;;;;;;14.68;4.60;;;25.40;94.60;;;;;;5127360;28;20024;-61
2022/04/17 10:46:44;;;;;;;10.82;3.92;;;25.40;94.50;;;;;;5126927;28;20027;-60
2022/04/17 10:49:10;;;;;;;8.68;4.07;;;25.40;94.50;;;;;;5127354;28;20067;-60
2022/04/17 10:51:38;;;;;;;8.60;3.67;;;25.40;94.50;;;;;;5127324;28;20092;-58
2022/04/17 10:54:11;;;;;;;8.25;4.07;;;25.40;94.50;;;;;;5127131;28;20016;-60
2022/04/17 10:56:39;;;;;;;11.52;4.20;;;25.30;94.50;;;;;;5127191;28;20031;-61
2022/04/17 10:59:15;;;;;;;6.63;3.85;;;25.30;94.50;;;;;;5126945;28;20189;-60
2022/04/17 11:01:42;;;;;;;10.40;4.20;;;25.30;94.40;;;;;;5126867;28;20035;-59
2022/04/17 11:04:23;;;;;;;15.18;5.22;;;25.30;94.40;;;;;;5127005;28;20343;-59
2022/04/17 11:07:05;;;;;;;14.15;4.78;;;25.40;94.40;;;;;;5126769;28;20261;-59
2022/04/17 11:09:33;;;;;;;8.57;4.50;;;25.30;94.40;;;;;;5126268;28;20028;-58
2022/04/17 11:12:08;;;;;;;12.85;4.22;;;25.30;94.40;;;;;;5126779;28;20024;-60
2022/04/17 11:14:35;;;;;;;13.95;4.57;;;25.30;94.50;;;;;;5126292;28;20020;-60
2022/04/17 11:17:08;;;;;;;7.25;4.43;;;25.30;94.50;;;;;;5126502;28;20066;-59
2022/04/17 11:19:39;;;;;;;12.73;4.68;;;25.30;94.50;;;;;;5126338;28;20035;-60
2022/04/17 11:22:08;;;;;;;9.82;4.28;;;25.40;94.60;;;;;;5126675;28;20362;-59
2022/04/17 11:24:57;;;;;;;7.70;4.38;;;25.30;94.50;;;;;;5126344;28;20046;-59
2022/04/17 11:27:32;;;;;;;9.57;4.68;;;25.30;94.60;;;;;;5126419;28;20031;-58
2022/04/17 11:30:00;;;;;;;8.20;4.57;;;25.40;94.60;;;;;;5126410;28;20028;-60
2022/04/17 11:32:29;;;;;;;10.65;5.05;;;25.30;94.50;;;;;;5126606;28;20276;-59
2022/04/17 11:34:57;;;;;;;11.13;4.65;;;25.40;94.60;;;;;;5126193;28;20028;-60
2022/04/17 11:37:26;;;;;;;10.60;5.20;;;25.30;94.70;;;;;;5126780;28;20083;-59
2022/04/17 11:39:54;;;;;;;11.38;4.80;;;25.40;94.70;;;;;;5126166;28;20023;-57
2022/04/17 11:42:22;;;;;;;10.25;4.90;;;25.40;94.70;;;;;;5126021;28;20036;-58
2022/04/17 11:44:49;;;;;;;12.27;5.03;;;25.40;94.70;;;;;;5125867;28;20015;-59
2022/04/17 11:47:22;;;;;;;10.82;5.68;;;25.40;94.70;;;;;;5125837;28;20320;-60
2022/04/17 11:49:48;;;;;;;;;;;25.40;94.60;;;;;;5126528;28;20052;-59
2022/04/17 11:52:17;;;;;;;16.80;6.63;;;25.40;94.60;;;;;;5126135;28;19946;-59
2022/04/17 11:54:45;;;;;;;11.30;6.05;;;25.40;94.60;;;;;;5125797;28;20019;-58
2022/04/17 11:57:13;;;;;;;18.55;6.00;;;25.40;94.60;;;;;;5126446;28;20204;-60
2022/04/17 11:59:51;;;;;;;12.10;6.30;;;25.40;94.60;;;;;;5126312;28;20023;-58
2022/04/17 12:02:19;;;;;;;16.23;6.55;;;25.40;94.60;;;;;;5125612;28;20042;-58
2022/04/17 12:04:47;;;;;;;11.82;5.97;;;25.40;94.60;;;;;;5126054;28;20061;-59
2022/04/17 12:07:19;;;;;;;11.00;5.95;;;25.40;94.70;;;;;;5125657;28;20076;-58
2022/04/17 12:09:46;;;;;;;13.43;5.85;;;25.40;94.70;;;;;;5125207;28;20096;-57
2022/04/17 12:12:14;;;;;;;12.75;6.55;;;25.40;94.70;;;;;;5125357;28;20028;-57
2022/04/17 12:14:45;;;;;;;11.40;6.32;;;25.40;94.70;;;;;;5121571;28;20156;-56
2022/04/17 12:17:14;;;;;;;11.75;5.93;;;25.40;94.70;;;;;;5124650;28;20103;-54
2022/04/17 12:19:50;;;;;;;11.70;5.60;;;25.40;94.60;;;;;;5125247;28;20047;-56
2022/04/17 12:22:20;;;;;;;14.70;6.25;;;25.40;94.60;;;;;;5125299;28;20304;-58
2022/04/17 12:24:47;;;;;;;12.27;5.93;;;25.40;94.60;;;;;;5125206;28;20019;-58
2022/04/17 12:27:19;;;;;;;14.77;6.47;;;25.50;94.60;;;;;;5124491;28;20103;-58
2022/04/17 12:29:49;;;;;;;13.57;6.50;;;25.40;94.60;;;;;;5124897;28;20073;-57
2022/04/17 12:32:19;;;;;;;11.77;6.75;;;25.40;94.50;;;;;;5125201;28;20050;-57
2022/04/17 12:34:46;;;;;;;15.05;6.75;;;25.50;94.50;;;;;;5124810;28;20111;-58
2022/04/17 12:37:25;;;;;;;14.52;6.47;;;25.40;94.50;;;;;;5125218;28;20035;-58
2022/04/17 12:39:51;;;;;;;13.05;6.47;;;25.50;94.60;;;;;;5125059;28;20328;-59
2022/04/17 12:42:19;;;;;;;11.93;6.18;;;25.50;94.60;;;;;;5124951;28;20028;-58
2022/04/17 12:44:47;;;;;;;12.98;6.40;;;25.40;94.60;;;;;;5124979;28;20024;-60
2022/04/17 12:47:17;;;;;;;14.18;6.97;;;25.50;94.60;;;;;;5124914;28;20098;-58
2022/04/17 12:49:44;;;;;;;21.52;7.30;;;25.40;94.50;;;;;;5124551;28;20217;-58
2022/04/17 12:52:21;;;;;;;19.83;7.55;;;25.40;94.70;;;;;;5125045;28;20080;-59
2022/04/17 12:54:48;;;;;;;16.63;6.53;;;25.40;94.40;;;;;;5124723;28;20035;-58
2022/04/17 12:57:20;;;;;;;22.70;7.22;;;25.40;94.50;;;;;;5124770;28;20030;-59
2022/04/17 12:59:51;;;;;;;23.30;7.32;;;25.40;94.40;;;;;;5123880;28;20383;-57